Airport View

Enter AWOS ICAO identifier for current METAR.

ex. KFNL

19 Jun 2019 18:51

Frequency: 118.425

Phone: 618-382-3760

Other Area AWOS: KFWC - KHSB - KEHR - KEVV

TAF AMD KEVV 191825Z 1918/2018 22010G18KT P6SM VCTS SCT040CB BKN150 TEMPO 1919/1922 VRB15G35KT 2SM +TSRA BR BKN015CB OVC040 FM192300 22010G16KT P6SM BKN035 FM200300 23006KT P6SM SCT050